createdAt,value
2018-05-13T00:00:46.808Z,16.20
2018-05-13T00:03:15.602Z,16.20
2018-05-13T00:05:44.580Z,16.10
2018-05-13T00:08:13.420Z,16.10
2018-05-13T00:10:42.456Z,16.10
2018-05-13T00:13:10.466Z,16.10
2018-05-13T00:15:38.499Z,16.10
2018-05-13T00:18:06.556Z,16.00
2018-05-13T00:20:34.676Z,15.90
2018-05-13T00:23:02.727Z,15.90
2018-05-13T00:25:31.536Z,15.80
2018-05-13T00:27:59.590Z,15.70
2018-05-13T00:30:28.390Z,15.70
2018-05-13T00:32:56.440Z,15.60
2018-05-13T00:35:25.239Z,15.70
2018-05-13T00:37:54.053Z,15.50
2018-05-13T00:40:22.292Z,15.50
2018-05-13T00:42:51.117Z,15.40
2018-05-13T00:45:19.237Z,15.30
2018-05-13T00:47:47.960Z,15.30
2018-05-13T00:50:16.005Z,15.30
2018-05-13T00:52:44.888Z,15.30
2018-05-13T00:55:12.905Z,15.30
2018-05-13T00:57:40.938Z,15.30
2018-05-13T01:00:08.988Z,15.30
2018-05-13T01:02:37.068Z,15.10
2018-05-13T01:05:05.115Z,15.10
2018-05-13T01:07:33.148Z,15.10
2018-05-13T01:10:01.204Z,15.20
2018-05-13T01:12:29.239Z,15.20
2018-05-13T01:14:57.283Z,15.10
2018-05-13T01:17:25.333Z,15.00
2018-05-13T01:19:54.147Z,15.00
2018-05-13T01:22:22.197Z,14.90
2018-05-13T01:24:50.249Z,14.70
2018-05-13T01:27:18.284Z,14.70
2018-05-13T01:29:46.350Z,14.60
2018-05-13T01:32:14.424Z,14.60
2018-05-13T01:34:42.596Z,14.70
2018-05-13T01:37:10.670Z,14.80
2018-05-13T01:39:38.796Z,14.80
2018-05-13T01:42:06.833Z,14.90
2018-05-13T01:44:34.878Z,15.00
2018-05-13T01:47:06.520Z,15.10
2018-05-13T01:49:34.576Z,15.10
2018-05-13T01:52:02.616Z,15.10
2018-05-13T01:54:30.673Z,15.10
2018-05-13T01:56:59.538Z,15.10
2018-05-13T01:59:27.607Z,15.10
2018-05-13T02:01:55.657Z,15.10
2018-05-13T02:04:24.102Z,15.00
2018-05-13T02:06:52.127Z,15.00
2018-05-13T02:09:20.172Z,14.90
2018-05-13T02:11:48.207Z,14.80
2018-05-13T02:14:16.291Z,14.80
2018-05-13T02:16:44.341Z,14.70
2018-05-13T02:19:13.157Z,14.60
2018-05-13T02:21:41.205Z,14.60
2018-05-13T02:24:10.034Z,14.70
2018-05-13T02:26:38.088Z,14.70
2018-05-13T02:29:06.129Z,14.60
2018-05-13T02:31:34.193Z,14.60
2018-05-13T02:34:02.997Z,14.50
2018-05-13T02:36:31.106Z,14.50
2018-05-13T02:38:59.182Z,14.40
2018-05-13T02:41:27.273Z,14.50
2018-05-13T02:43:55.327Z,14.30
2018-05-13T02:46:23.369Z,14.30
2018-05-13T02:48:51.416Z,14.30
2018-05-13T02:51:19.461Z,14.20
2018-05-13T02:53:47.873Z,14.20
2018-05-13T02:56:16.113Z,14.20
2018-05-13T02:58:44.153Z,14.20
2018-05-13T03:01:12.744Z,14.10
2018-05-13T03:03:42.661Z,14.10
2018-05-13T03:06:10.784Z,14.00
2018-05-13T03:08:39.597Z,14.00
2018-05-13T03:11:07.640Z,14.00
2018-05-13T03:13:36.450Z,13.90
2018-05-13T03:16:04.732Z,13.90
2018-05-13T03:18:33.530Z,14.10
2018-05-13T03:21:01.594Z,14.10
2018-05-13T03:23:29.621Z,14.20
2018-05-13T03:25:57.677Z,14.20
2018-05-13T03:28:25.718Z,14.20
2018-05-13T03:30:53.870Z,14.20
2018-05-13T03:33:21.875Z,14.20
2018-05-13T03:35:49.924Z,14.30
2018-05-13T03:38:17.964Z,14.30
2018-05-13T03:40:46.019Z,14.30
2018-05-13T03:43:14.057Z,14.40
2018-05-13T03:45:42.109Z,14.40
2018-05-13T03:48:10.278Z,14.50
2018-05-13T03:50:39.102Z,14.50
2018-05-13T03:53:07.132Z,14.40
2018-05-13T03:55:35.969Z,14.50
2018-05-13T03:58:04.008Z,14.50
2018-05-13T04:00:32.050Z,14.60
2018-05-13T04:03:00.085Z,14.60
2018-05-13T04:05:28.142Z,14.60
2018-05-13T04:11:20.758Z,14.80
2018-05-13T04:14:00.758Z,14.80
2018-05-13T04:16:28.811Z,14.90
2018-05-13T04:18:56.860Z,14.90
2018-05-13T04:21:24.924Z,15.00
2018-05-13T04:23:54.017Z,15.00
2018-05-13T04:26:22.077Z,15.10
2018-05-13T04:28:50.157Z,15.20
2018-05-13T04:31:18.982Z,15.30
2018-05-13T04:33:47.036Z,15.30
2018-05-13T04:36:15.092Z,15.40
2018-05-13T04:38:43.164Z,15.40
2018-05-13T04:41:11.219Z,15.30
2018-05-13T04:43:39.274Z,15.30
2018-05-13T04:46:08.099Z,15.30
2018-05-13T04:48:36.173Z,15.30
2018-05-13T04:51:04.212Z,15.40
2018-05-13T04:53:32.304Z,15.40
2018-05-13T04:56:01.164Z,15.40
2018-05-13T04:58:29.968Z,15.50
2018-05-13T05:00:58.013Z,15.40
2018-05-13T05:03:27.086Z,15.30
2018-05-13T05:05:56.097Z,15.30
2018-05-13T05:08:24.931Z,15.30
2018-05-13T05:10:52.985Z,15.30
2018-05-13T05:13:21.051Z,15.20
2018-05-13T05:15:49.096Z,15.20
2018-05-13T05:18:17.918Z,15.20
2018-05-13T05:20:45.964Z,15.20
2018-05-13T05:23:14.789Z,15.10
2018-05-13T05:25:42.844Z,15.10
2018-05-13T05:28:10.907Z,15.10
2018-05-13T05:30:39.724Z,15.10
2018-05-13T05:33:07.787Z,15.10
2018-05-13T05:35:35.861Z,15.10
2018-05-13T05:38:04.247Z,15.10
2018-05-13T05:40:32.303Z,15.10
2018-05-13T05:43:00.378Z,15.10
2018-05-13T05:45:28.458Z,15.10
2018-05-13T05:47:56.507Z,15.10
2018-05-13T05:50:24.551Z,15.20
2018-05-13T05:52:53.447Z,15.30
2018-05-13T05:55:21.493Z,15.30
2018-05-13T05:57:49.539Z,15.30
2018-05-13T06:00:17.593Z,15.30
2018-05-13T06:02:45.645Z,15.30
2018-05-13T06:05:13.691Z,15.40
2018-05-13T06:07:41.728Z,15.50
2018-05-13T06:10:09.793Z,15.50
2018-05-13T06:12:37.839Z,15.50
2018-05-13T06:15:05.892Z,15.50
2018-05-13T06:17:34.920Z,15.60
2018-05-13T06:20:02.993Z,15.60
2018-05-13T06:22:31.053Z,15.50
2018-05-13T06:24:59.883Z,15.60
2018-05-13T06:27:27.933Z,15.50
2018-05-13T06:29:55.991Z,15.60
2018-05-13T06:32:24.040Z,15.70
2018-05-13T06:34:52.104Z,15.70
2018-05-13T06:37:20.916Z,15.70
2018-05-13T06:39:48.969Z,15.70
2018-05-13T06:42:17.016Z,15.80
2018-05-13T06:44:45.848Z,15.80
2018-05-13T06:47:13.918Z,15.80
2018-05-13T06:49:42.021Z,15.80
2018-05-13T06:52:10.400Z,15.80
2018-05-13T06:54:38.455Z,15.90
2018-05-13T06:57:06.506Z,15.90
2018-05-13T06:59:34.565Z,15.90
2018-05-13T07:02:02.627Z,15.90
2018-05-13T07:04:31.444Z,16.10
2018-05-13T07:06:59.506Z,16.10
2018-05-13T07:09:27.560Z,16.10
2018-05-13T07:11:55.616Z,16.10
2018-05-13T07:14:24.456Z,16.30
2018-05-13T07:16:52.572Z,16.30
2018-05-13T07:19:21.419Z,16.30
2018-05-13T07:21:49.476Z,16.30
2018-05-13T07:24:17.571Z,16.30
2018-05-13T07:26:47.552Z,16.30
2018-05-13T07:29:15.653Z,16.30
2018-05-13T07:31:44.416Z,16.40
2018-05-13T07:34:12.484Z,16.40
2018-05-13T07:36:40.524Z,16.40
2018-05-13T07:39:09.351Z,16.40
2018-05-13T07:41:37.426Z,16.40
2018-05-13T07:44:05.470Z,16.50
2018-05-13T07:46:33.524Z,16.70
2018-05-13T07:49:02.347Z,16.80
2018-05-13T07:51:31.399Z,16.90
2018-05-13T07:53:59.484Z,17.00
2018-05-13T07:56:28.315Z,17.30
2018-05-13T07:58:57.140Z,17.60
2018-05-13T08:01:25.198Z,17.60
2018-05-13T08:03:53.264Z,17.90
2018-05-13T08:06:21.319Z,18.00
2018-05-13T08:08:49.386Z,18.00
2018-05-13T08:11:17.447Z,17.90
2018-05-13T08:13:45.500Z,17.90
2018-05-13T08:16:13.576Z,17.90
2018-05-13T08:18:41.613Z,17.80
2018-05-13T08:21:09.681Z,17.80
2018-05-13T08:23:37.737Z,17.70
2018-05-13T08:26:05.800Z,17.60
2018-05-13T08:28:33.856Z,17.80
2018-05-13T08:31:01.916Z,17.90
2018-05-13T08:33:29.976Z,17.90
2018-05-13T08:35:58.033Z,17.90
2018-05-13T08:38:26.091Z,17.80
2018-05-13T08:40:54.913Z,17.70
2018-05-13T08:43:22.960Z,17.70
2018-05-13T08:45:51.213Z,17.50
2018-05-13T08:48:19.261Z,17.40
2018-05-13T08:50:47.321Z,17.50
2018-05-13T08:53:15.369Z,17.80
2018-05-13T08:55:43.431Z,17.70
2018-05-13T08:58:11.492Z,17.70
2018-05-13T09:00:39.572Z,17.60
2018-05-13T09:03:07.633Z,17.60
2018-05-13T09:05:35.709Z,17.50
2018-05-13T09:08:03.864Z,17.50
2018-05-13T09:10:32.605Z,17.30
2018-05-13T09:13:00.677Z,17.30
2018-05-13T09:15:28.739Z,17.30
2018-05-13T09:17:57.557Z,17.30
2018-05-13T09:20:25.636Z,17.20
2018-05-13T09:22:53.689Z,17.30
2018-05-13T09:25:21.745Z,17.30
2018-05-13T09:27:49.812Z,17.30
2018-05-13T09:30:21.834Z,17.20
2018-05-13T09:32:50.659Z,17.30
2018-05-13T09:35:18.724Z,17.20
2018-05-13T09:37:46.789Z,17.20
2018-05-13T09:40:14.838Z,17.20
2018-05-13T09:42:43.665Z,17.00
2018-05-13T09:45:11.719Z,17.00
2018-05-13T09:47:39.788Z,16.90
2018-05-13T09:50:07.845Z,16.90
2018-05-13T09:52:35.937Z,17.00
2018-05-13T09:55:03.991Z,16.90
2018-05-13T09:57:32.111Z,17.00
2018-05-13T10:00:01.433Z,16.90
2018-05-13T10:02:29.556Z,16.90
2018-05-13T10:04:57.616Z,16.80
2018-05-13T10:07:25.698Z,16.80
2018-05-13T10:09:53.769Z,16.90
2018-05-13T10:12:21.836Z,17.00
2018-05-13T10:14:49.892Z,17.00
2018-05-13T10:17:17.962Z,17.00
2018-05-13T10:19:46.034Z,17.00
2018-05-13T10:22:14.104Z,17.00
2018-05-13T10:24:42.152Z,17.00
2018-05-13T10:27:11.044Z,17.00
2018-05-13T10:29:39.040Z,17.00
2018-05-13T10:32:07.099Z,17.00
2018-05-13T10:34:35.148Z,17.00
2018-05-13T10:37:03.207Z,17.20
2018-05-13T10:39:31.252Z,17.20
2018-05-13T10:41:59.315Z,17.20
2018-05-13T10:44:27.378Z,17.10
2018-05-13T10:46:55.456Z,17.10
2018-05-13T10:49:23.519Z,17.20
2018-05-13T10:51:51.582Z,17.30
2018-05-13T10:54:19.620Z,17.40
2018-05-13T10:56:47.684Z,17.30
2018-05-13T10:59:15.724Z,17.20
2018-05-13T11:01:43.793Z,17.20
2018-05-13T11:04:11.844Z,17.20
2018-05-13T11:06:39.891Z,17.20
2018-05-13T11:09:08.051Z,17.30
2018-05-13T11:11:36.883Z,17.50
2018-05-13T11:14:04.938Z,17.50
2018-05-13T11:16:32.980Z,17.60
2018-05-13T11:19:01.802Z,17.70
2018-05-13T11:21:29.855Z,17.70
2018-05-13T11:23:57.921Z,17.90
2018-05-13T11:26:26.737Z,18.10
2018-05-13T11:28:54.795Z,18.10
2018-05-13T11:31:22.846Z,18.20
2018-05-13T11:33:50.969Z,18.30
2018-05-13T11:36:19.724Z,18.50
2018-05-13T11:38:47.771Z,18.50
2018-05-13T11:41:15.828Z,18.40
2018-05-13T11:43:43.880Z,18.40
2018-05-13T11:46:11.996Z,18.40
2018-05-13T11:48:40.112Z,18.30
2018-05-13T11:51:08.160Z,18.40
2018-05-13T11:53:36.227Z,18.60
2018-05-13T11:56:04.457Z,18.70
2018-05-13T11:58:33.200Z,18.80
2018-05-13T12:01:02.863Z,18.70
2018-05-13T12:03:31.818Z,18.30
2018-05-13T12:06:00.203Z,18.30
2018-05-13T12:08:28.304Z,18.60
2018-05-13T12:10:57.139Z,18.50
2018-05-13T12:13:25.209Z,18.50
2018-05-13T12:15:53.264Z,18.50
2018-05-13T12:18:21.329Z,18.60
2018-05-13T12:20:49.377Z,18.60
2018-05-13T12:23:18.204Z,18.60
2018-05-13T12:25:46.264Z,18.60
2018-05-13T12:28:14.333Z,18.70
2018-05-13T12:30:42.390Z,18.80
2018-05-13T12:33:11.235Z,19.20
2018-05-13T12:35:39.305Z,19.10
2018-05-13T12:38:07.460Z,19.30
2018-05-13T12:40:35.445Z,19.30
2018-05-13T12:43:03.511Z,19.40
2018-05-13T12:45:31.564Z,19.40
2018-05-13T12:47:59.633Z,19.20
2018-05-13T12:50:29.600Z,19.00
2018-05-13T12:52:57.664Z,19.00
2018-05-13T12:55:26.253Z,19.10
2018-05-13T12:57:54.318Z,19.20
2018-05-13T13:00:22.396Z,19.30
2018-05-13T13:02:50.468Z,19.50
2018-05-13T13:05:18.543Z,19.60
2018-05-13T13:07:46.670Z,19.70
2018-05-13T13:10:14.677Z,19.80
2018-05-13T13:12:42.732Z,20.00
2018-05-13T13:15:10.825Z,19.70
2018-05-13T13:17:38.897Z,19.90
2018-05-13T13:20:07.057Z,20.10
2018-05-13T13:22:35.228Z,20.20
2018-05-13T13:25:03.299Z,19.80
2018-05-13T13:27:31.577Z,20.20
2018-05-13T13:29:59.644Z,20.30
2018-05-13T13:32:27.709Z,20.50
2018-05-13T13:34:56.091Z,20.30
2018-05-13T13:37:24.156Z,20.70
2018-05-13T13:39:52.221Z,21.00
2018-05-13T13:42:20.272Z,20.90
2018-05-13T13:44:48.352Z,20.70
2018-05-13T13:47:16.500Z,21.10
2018-05-13T13:49:44.493Z,21.00
2018-05-13T13:52:12.556Z,21.00
2018-05-13T13:54:40.625Z,21.00
2018-05-13T13:57:10.509Z,21.20
2018-05-13T13:59:39.348Z,21.70
2018-05-13T14:02:07.411Z,21.70
2018-05-13T14:04:35.476Z,21.70
2018-05-13T14:07:03.548Z,21.40
2018-05-13T14:09:31.611Z,21.10
2018-05-13T14:11:59.786Z,21.20
2018-05-13T14:14:27.804Z,20.90
2018-05-13T14:16:56.074Z,20.50
2018-05-13T14:19:24.137Z,20.40
2018-05-13T14:21:52.191Z,20.10
2018-05-13T14:24:20.260Z,20.10
2018-05-13T14:26:48.319Z,20.00
2018-05-13T14:29:16.437Z,20.20
2018-05-13T14:31:45.225Z,20.10
2018-05-13T14:34:13.292Z,20.10
2018-05-13T14:36:41.333Z,20.00
2018-05-13T14:39:12.256Z,19.80
2018-05-13T14:41:37.532Z,19.80
2018-05-13T14:44:06.361Z,19.60
2018-05-13T14:46:34.432Z,19.60
2018-05-13T14:49:02.492Z,19.60
2018-05-13T14:51:30.560Z,19.70
2018-05-13T14:53:58.619Z,19.90
2018-05-13T14:56:26.708Z,19.80
2018-05-13T14:58:54.763Z,19.60
2018-05-13T15:01:22.846Z,19.60
2018-05-13T15:03:50.916Z,19.50
2018-05-13T15:06:18.987Z,19.40
2018-05-13T15:08:47.058Z,19.40
2018-05-13T15:11:15.128Z,19.40
2018-05-13T15:13:43.204Z,19.30
2018-05-13T15:16:11.272Z,19.30
2018-05-13T15:18:39.332Z,19.10
2018-05-13T15:21:07.413Z,18.80
2018-05-13T15:23:35.456Z,18.80
2018-05-13T15:26:04.292Z,18.70
2018-05-13T15:28:32.406Z,18.70
2018-05-13T15:31:00.480Z,18.70
2018-05-13T15:33:29.305Z,18.50
2018-05-13T15:35:57.377Z,18.50
2018-05-13T15:38:25.447Z,18.40
2018-05-13T15:40:53.513Z,18.30
2018-05-13T15:43:22.442Z,18.30
2018-05-13T15:45:50.410Z,18.30
2018-05-13T15:48:18.482Z,18.20
2018-05-13T15:50:46.574Z,18.30
2018-05-13T15:53:14.644Z,18.10
2018-05-13T15:55:42.710Z,18.10
2018-05-13T15:58:13.117Z,17.90
2018-05-13T16:00:41.212Z,17.80
2018-05-13T16:03:09.291Z,17.70
2018-05-13T16:05:37.781Z,17.70
2018-05-13T16:08:06.812Z,17.70
2018-05-13T16:10:34.864Z,17.70
2018-05-13T16:13:02.928Z,17.90
2018-05-13T16:15:30.992Z,17.90
2018-05-13T16:17:59.065Z,17.80
2018-05-13T16:20:27.124Z,17.80
2018-05-13T16:22:55.960Z,17.70
2018-05-13T16:25:24.782Z,17.60
2018-05-13T16:27:52.852Z,17.60
2018-05-13T16:30:20.945Z,17.50
2018-05-13T16:32:48.985Z,17.50
2018-05-13T16:35:17.075Z,17.50
2018-05-13T16:37:45.145Z,17.50
2018-05-13T16:40:13.202Z,17.60
2018-05-13T16:42:41.263Z,17.60
2018-05-13T16:45:09.334Z,17.70
2018-05-13T16:47:37.425Z,17.60
2018-05-13T16:50:06.620Z,17.60
2018-05-13T16:52:34.685Z,17.40
2018-05-13T16:55:02.758Z,17.50
2018-05-13T16:57:30.817Z,17.40
2018-05-13T16:59:59.077Z,17.40
2018-05-13T17:02:30.985Z,17.50
2018-05-13T17:04:59.043Z,17.40
2018-05-13T17:07:30.733Z,17.20
2018-05-13T17:09:59.336Z,17.20
2018-05-13T17:12:27.408Z,17.00
2018-05-13T17:14:55.473Z,16.90
2018-05-13T17:17:23.563Z,16.90
2018-05-13T17:19:51.676Z,17.00
2018-05-13T17:22:20.513Z,16.80
2018-05-13T17:24:48.568Z,16.80
2018-05-13T17:27:16.640Z,16.80
2018-05-13T17:29:44.758Z,16.80
2018-05-13T17:32:12.781Z,16.80
2018-05-13T17:34:40.838Z,16.80
2018-05-13T17:37:09.655Z,16.80
2018-05-13T17:39:37.732Z,16.70
2018-05-13T17:42:05.800Z,16.80
2018-05-13T17:44:33.865Z,16.70
2018-05-13T17:47:01.921Z,16.70
2018-05-13T17:49:29.983Z,16.60
2018-05-13T17:51:58.036Z,16.60
2018-05-13T17:54:26.868Z,16.50
2018-05-13T17:56:55.689Z,16.40
2018-05-13T17:59:23.805Z,16.40
2018-05-13T18:01:51.860Z,16.30
2018-05-13T18:04:20.701Z,16.20
2018-05-13T18:06:48.779Z,16.20
2018-05-13T18:09:16.840Z,16.30
2018-05-13T18:11:44.922Z,16.20
2018-05-13T18:14:12.967Z,16.30
2018-05-13T18:16:41.016Z,16.20
2018-05-13T18:19:09.857Z,16.00
2018-05-13T18:21:37.997Z,16.00
2018-05-13T18:24:06.018Z,16.10
2018-05-13T18:26:34.137Z,16.00
2018-05-13T18:29:02.209Z,15.90
2018-05-13T18:31:30.264Z,15.80
2018-05-13T18:33:58.338Z,15.90
2018-05-13T18:36:27.165Z,15.80
2018-05-13T18:38:55.248Z,15.70
2018-05-13T18:41:23.280Z,15.60
2018-05-13T18:43:51.349Z,15.50
2018-05-13T18:46:19.403Z,15.40
2018-05-13T18:48:48.235Z,15.30
2018-05-13T18:51:17.288Z,15.20
2018-05-13T18:56:36.261Z,15.30
2018-05-13T18:59:04.410Z,15.20
2018-05-13T19:01:32.404Z,15.20
2018-05-13T19:04:01.244Z,15.30
2018-05-13T19:06:29.301Z,15.30
2018-05-13T19:08:57.433Z,15.30
2018-05-13T19:11:26.269Z,15.20
2018-05-13T19:13:54.349Z,15.10
2018-05-13T19:16:22.412Z,15.10
2018-05-13T19:18:50.472Z,14.90
2018-05-13T19:21:19.675Z,14.90
2018-05-13T19:23:47.735Z,14.70
2018-05-13T19:26:15.788Z,14.60
2018-05-13T19:28:43.866Z,14.60
2018-05-13T19:31:11.933Z,14.50
2018-05-13T19:33:40.020Z,14.50
2018-05-13T19:36:08.127Z,14.50
2018-05-13T19:38:36.185Z,14.40
2018-05-13T19:41:04.249Z,14.40
2018-05-13T19:43:32.305Z,14.40
2018-05-13T19:46:00.379Z,14.50
2018-05-13T19:48:28.451Z,14.50
2018-05-13T19:50:56.521Z,14.40
2018-05-13T19:53:24.604Z,14.40
2018-05-13T19:55:52.678Z,14.30
2018-05-13T19:58:20.737Z,14.40
2018-05-13T20:00:49.570Z,14.40
2018-05-13T20:03:17.783Z,14.40
2018-05-13T20:05:45.729Z,14.40
2018-05-13T20:08:14.549Z,14.40
2018-05-13T20:10:43.546Z,14.40
2018-05-13T20:13:11.603Z,14.40
2018-05-13T20:15:39.663Z,14.50
2018-05-13T20:18:08.493Z,14.40
2018-05-13T20:20:36.625Z,14.40
2018-05-13T20:23:17.381Z,14.30
2018-05-13T20:25:45.405Z,14.30
2018-05-13T20:28:13.463Z,14.30
2018-05-13T20:30:41.537Z,14.30
2018-05-13T20:33:09.612Z,14.20
2018-05-13T20:35:37.697Z,14.30
2018-05-13T20:38:05.767Z,14.30
2018-05-13T20:40:33.836Z,14.40
2018-05-13T20:43:01.888Z,14.40
2018-05-13T20:45:29.965Z,14.40
2018-05-13T20:47:58.028Z,14.40
2018-05-13T20:50:26.221Z,14.40
2018-05-13T20:52:54.325Z,14.40
2018-05-13T20:55:22.465Z,14.30
2018-05-13T20:57:50.587Z,14.30
2018-05-13T21:00:18.688Z,14.10
2018-05-13T21:02:46.748Z,14.10
2018-05-13T21:05:15.686Z,14.10
2018-05-13T21:07:44.843Z,14.10
2018-05-13T21:10:13.794Z,14.00
2018-05-13T21:12:41.897Z,14.00
2018-05-13T21:15:09.961Z,14.00
2018-05-13T21:17:38.117Z,14.10
2018-05-13T21:20:06.321Z,14.20
2018-05-13T21:22:34.419Z,14.30
2018-05-13T21:25:02.541Z,14.30
2018-05-13T21:27:30.686Z,14.30
2018-05-13T21:29:58.738Z,14.10
2018-05-13T21:32:26.810Z,14.10
2018-05-13T21:34:54.870Z,14.20
2018-05-13T21:37:22.947Z,14.30
2018-05-13T21:39:51.017Z,14.30
2018-05-13T21:42:19.092Z,14.30
2018-05-13T21:44:47.165Z,14.20
2018-05-13T21:47:15.273Z,14.10
2018-05-13T21:49:43.337Z,14.10
2018-05-13T21:52:11.414Z,14.00
2018-05-13T21:54:39.594Z,14.10
2018-05-13T21:57:07.749Z,14.20
2018-05-13T21:59:35.811Z,14.20
2018-05-13T22:02:03.892Z,14.10
2018-05-13T22:04:32.744Z,14.30
2018-05-13T22:07:00.876Z,14.20
2018-05-13T22:09:29.788Z,14.30
2018-05-13T22:11:57.859Z,14.30
2018-05-13T22:14:25.967Z,14.30
2018-05-13T22:16:54.025Z,14.10
2018-05-13T22:19:22.181Z,14.10
2018-05-13T22:21:50.248Z,14.00
2018-05-13T22:24:18.304Z,13.90
2018-05-13T22:26:47.145Z,13.90
2018-05-13T22:29:15.204Z,13.90
2018-05-13T22:31:44.090Z,14.00
2018-05-13T22:34:12.162Z,14.10
2018-05-13T22:36:40.229Z,14.10
2018-05-13T22:39:08.625Z,14.20
2018-05-13T22:41:36.892Z,14.00
2018-05-13T22:44:04.941Z,14.00
2018-05-13T22:46:33.055Z,14.00
2018-05-13T22:49:01.133Z,13.90
2018-05-13T22:51:29.220Z,13.90
2018-05-13T22:53:57.267Z,13.70
2018-05-13T22:56:25.370Z,13.70
2018-05-13T22:58:54.201Z,13.70
2018-05-13T23:01:22.341Z,13.70
2018-05-13T23:15:18.912Z,13.60
2018-05-13T23:17:47.001Z,13.60
2018-05-13T23:20:15.051Z,13.60
2018-05-13T23:22:43.116Z,13.60
2018-05-13T23:25:11.172Z,13.70
2018-05-13T23:27:39.296Z,13.60
2018-05-13T23:30:07.361Z,13.70
2018-05-13T23:32:35.424Z,13.70
2018-05-13T23:35:03.479Z,13.60
2018-05-13T23:37:31.549Z,13.60
2018-05-13T23:39:59.641Z,13.50
2018-05-13T23:42:27.705Z,13.40
2018-05-13T23:44:55.768Z,13.40
2018-05-13T23:47:23.829Z,13.30
2018-05-13T23:49:51.890Z,13.30
2018-05-13T23:52:19.960Z,13.30
2018-05-13T23:54:48.030Z,13.40
2018-05-13T23:57:16.859Z,13.40
2018-05-13T23:59:44.912Z,13.40
